Mission Field Livingston US
ICAO: KLVM
IATA: LVM
Category: Medium
Scheduled Services: No

Elevation: 4660 ft
TransAlt. 18000 ft.

Airport Communications:
ASOS:135.275
GREAT FALLS RDO:122.2
CTAF/UNICOM:123

KLVM Zoom In..

Runways:

(A) RW 04 length 5701 ft width 75 ft
---- / hdg 39

(B) RW 08 length 3762 ft width 125 ft
---- / hdg 78

(C) RW 13 length 2724 ft width 120 ft
---- / hdg 132

(D) RW 22 length 5701 ft width 75 ft
---- / hdg 219

(E) RW 26 length 3762 ft width 125 ft
---- / hdg 258

(F) RW 31 length 2724 ft width 120 ft
---- / hdg 312

Location; KLVM
Day. 23 / Time. 14.53 Zulu
* Altimeter: 30.18
* Temperature: -03° c. -26.6°f.
* Wind from: 260° Speed 14 kn.
Dewpoint: -09° c.
Visibility: 10 Statute Miles.
Clouds: Broken 6000 ft.

KLVM 231453Z AUTO 26014KT 10SM BKN060 M03/M09 A3018 RMK AO2 SLP257 T10281089 51006


Wind From 260°
Speed 14 kn.

YouTube Music Video
 
jpsmedia.com for Web Design  worldairports.se 2018   terms of use